createdAt,value
2023-04-08T00:02:07.175Z,8.17
2023-04-08T00:04:35.353Z,7.73
2023-04-08T00:07:03.368Z,6.87
2023-04-08T00:09:31.727Z,7.60
2023-04-08T00:11:59.758Z,7.27
2023-04-08T00:14:30.159Z,7.40
2023-04-08T00:17:01.411Z,7.77
2023-04-08T00:19:31.572Z,8.30
2023-04-08T00:22:02.286Z,8.47
2023-04-08T00:24:30.649Z,8.87
2023-04-08T00:26:58.562Z,8.90
2023-04-08T00:29:27.853Z,8.40
2023-04-08T00:31:56.911Z,8.07
2023-04-08T00:34:39.629Z,8.20
2023-04-08T00:37:15.265Z,8.83
2023-04-08T00:39:56.991Z,8.60
2023-04-08T00:42:24.932Z,8.80
2023-04-08T00:44:57.128Z,9.50
2023-04-08T00:47:46.703Z,8.27
2023-04-08T00:50:14.714Z,7.53
2023-04-08T00:52:43.518Z,6.83
2023-04-08T00:55:12.708Z,7.77
2023-04-08T00:57:40.765Z,8.80
2023-04-08T01:00:12.265Z,8.97
2023-04-08T01:03:41.011Z,7.83
2023-04-08T01:06:16.890Z,6.93
2023-04-08T01:08:55.036Z,6.87
2023-04-08T01:11:23.239Z,6.00
2023-04-08T01:13:56.262Z,6.33
2023-04-08T01:16:30.076Z,6.57
2023-04-08T01:19:10.503Z,6.37
2023-04-08T01:21:39.530Z,6.27
2023-04-08T01:24:14.943Z,6.80
2023-04-08T01:26:44.769Z,6.40
2023-04-08T01:29:20.721Z,6.67
2023-04-08T01:31:49.943Z,6.27
2023-04-08T01:34:19.796Z,6.70
2023-04-08T01:36:58.529Z,6.33
2023-04-08T01:39:28.343Z,6.27
2023-04-08T01:42:00.430Z,6.20
2023-04-08T01:44:29.538Z,4.80
2023-04-08T01:47:14.967Z,5.00
2023-04-08T01:49:44.925Z,4.27
2023-04-08T01:52:13.900Z,4.47
2023-04-08T01:54:42.196Z,4.67
2023-04-08T01:57:15.689Z,3.97
2023-04-08T01:59:44.508Z,4.00
2023-04-08T02:02:22.231Z,4.00
2023-04-08T02:04:55.092Z,3.87
2023-04-08T02:07:26.042Z,3.90
2023-04-08T02:09:57.574Z,4.20
2023-04-08T02:12:29.954Z,4.70
2023-04-08T02:15:02.156Z,4.93
2023-04-08T02:17:37.220Z,4.80
2023-04-08T02:20:08.744Z,4.43
2023-04-08T02:22:45.775Z,4.57
2023-04-08T02:25:26.933Z,5.67
2023-04-08T02:27:57.468Z,5.97
2023-04-08T02:30:28.821Z,6.50
2023-04-08T02:32:59.549Z,6.53
2023-04-08T02:35:29.601Z,7.43
2023-04-08T02:37:57.583Z,7.07
2023-04-08T02:40:27.729Z,7.40
2023-04-08T02:42:57.502Z,7.30
2023-04-08T02:45:29.273Z,6.83
2023-04-08T02:47:57.315Z,7.53
2023-04-08T02:50:25.391Z,8.10
2023-04-08T02:52:53.613Z,7.90
2023-04-08T02:55:21.476Z,8.30
2023-04-08T02:57:49.849Z,7.80
2023-04-08T03:00:19.390Z,8.00
2023-04-08T03:02:49.218Z,7.57
2023-04-08T03:05:23.114Z,8.00
2023-04-08T03:07:51.020Z,8.17
2023-04-08T03:10:32.413Z,8.57
2023-04-08T03:13:00.297Z,8.00
2023-04-08T03:15:29.644Z,8.53
2023-04-08T03:17:57.623Z,8.63
2023-04-08T03:20:25.795Z,8.33
2023-04-08T03:22:53.697Z,8.57
2023-04-08T03:25:22.889Z,8.67
2023-04-08T03:27:51.143Z,9.17
2023-04-08T03:30:19.352Z,8.67
2023-04-08T03:32:48.631Z,8.83
2023-04-08T03:35:18.962Z,9.63
2023-04-08T03:37:46.968Z,8.90
2023-04-08T03:40:16.055Z,8.70
2023-04-08T03:42:44.025Z,9.10
2023-04-08T03:45:12.177Z,9.60
2023-04-08T03:47:40.917Z,9.10
2023-04-08T03:50:58.817Z,8.70
2023-04-08T03:53:30.459Z,8.20
2023-04-08T03:55:59.074Z,8.70
2023-04-08T03:58:28.453Z,8.27
2023-04-08T04:01:00.366Z,8.73
2023-04-08T04:03:28.521Z,8.50
2023-04-08T04:05:57.635Z,8.13
2023-04-08T04:08:34.264Z,8.13
2023-04-08T04:11:04.299Z,7.93
2023-04-08T04:13:38.972Z,8.27
2023-04-08T04:21:31.254Z,7.77
2023-04-08T04:26:42.689Z,8.13
2023-04-08T04:29:10.696Z,7.23
2023-04-08T04:31:39.073Z,7.90
2023-04-08T04:34:06.987Z,7.77
2023-04-08T04:36:35.356Z,7.67
2023-04-08T04:39:04.732Z,7.20
2023-04-08T04:41:32.672Z,7.70
2023-04-08T04:44:01.362Z,7.53
2023-04-08T04:46:29.368Z,7.37
2023-04-08T04:48:57.496Z,7.23
2023-04-08T04:51:26.532Z,7.43
2023-04-08T04:53:54.440Z,7.27
2023-04-08T04:56:23.728Z,6.93
2023-04-08T04:58:51.990Z,7.13
2023-04-08T05:01:20.549Z,7.53
2023-04-08T05:03:48.604Z,6.57
2023-04-08T05:06:16.668Z,7.00
2023-04-08T05:08:45.428Z,6.83
2023-04-08T05:11:13.407Z,6.87
2023-04-08T05:13:42.716Z,8.10
2023-04-08T05:16:10.825Z,6.97
2023-04-08T05:18:38.762Z,7.83
2023-04-08T05:21:06.670Z,7.03
2023-04-08T05:23:35.555Z,6.83
2023-04-08T05:26:03.463Z,7.23
2023-04-08T05:28:31.434Z,7.10
2023-04-08T05:31:01.085Z,6.93
2023-04-08T05:33:30.089Z,6.77
2023-04-08T05:35:59.405Z,6.70
2023-04-08T05:38:27.367Z,7.10
2023-04-08T05:40:55.328Z,6.70
2023-04-08T05:43:23.216Z,7.17
2023-04-08T05:45:51.193Z,7.23
2023-04-08T05:48:20.491Z,7.13
2023-04-08T05:50:49.368Z,7.00
2023-04-08T05:53:17.350Z,6.97
2023-04-08T05:55:45.309Z,6.67
2023-04-08T05:58:13.196Z,7.37
2023-04-08T06:00:41.142Z,6.63
2023-04-08T06:03:09.237Z,7.17
2023-04-08T06:05:38.570Z,6.23
2023-04-08T06:08:07.280Z,6.83
2023-04-08T06:10:35.176Z,7.07
2023-04-08T06:13:03.756Z,6.67
2023-04-08T06:15:32.527Z,6.90
2023-04-08T06:18:00.445Z,7.57
2023-04-08T06:20:28.440Z,7.00
2023-04-08T06:22:57.688Z,6.97
2023-04-08T06:25:25.788Z,7.40
2023-04-08T06:27:53.729Z,6.53
2023-04-08T06:30:21.894Z,7.13
2023-04-08T06:32:49.849Z,6.97
2023-04-08T06:35:17.969Z,7.03
2023-04-08T06:37:48.359Z,7.17
2023-04-08T06:40:17.852Z,7.30
2023-04-08T06:42:45.844Z,7.23
2023-04-08T06:45:13.834Z,7.63
2023-04-08T06:47:41.748Z,7.13
2023-04-08T06:50:10.656Z,7.00
2023-04-08T06:52:38.533Z,7.40
2023-04-08T06:55:07.277Z,7.33
2023-04-08T06:57:47.797Z,6.80
2023-04-08T07:00:16.904Z,7.73
2023-04-08T07:02:54.590Z,7.40
2023-04-08T07:05:22.566Z,7.37
2023-04-08T07:07:50.604Z,7.47
2023-04-08T07:10:21.020Z,7.97
2023-04-08T07:12:53.370Z,7.47
2023-04-08T07:15:21.343Z,7.33
2023-04-08T07:17:49.305Z,7.40
2023-04-08T07:20:19.578Z,7.60
2023-04-08T07:22:48.378Z,7.90
2023-04-08T07:25:17.284Z,7.83
2023-04-08T07:27:45.194Z,6.40
2023-04-08T07:30:14.649Z,7.50
2023-04-08T07:32:47.210Z,7.50
2023-04-08T07:35:26.177Z,7.30
2023-04-08T07:37:57.783Z,7.87
2023-04-08T07:40:25.824Z,7.03
2023-04-08T07:42:54.306Z,6.87
2023-04-08T07:45:23.917Z,7.17
2023-04-08T07:47:51.879Z,7.07
2023-04-08T07:50:22.599Z,7.80
2023-04-08T07:52:55.890Z,6.90
2023-04-08T07:55:23.819Z,8.13
2023-04-08T07:57:51.922Z,6.50
2023-04-08T08:00:21.792Z,7.60
2023-04-08T08:02:53.693Z,7.40
2023-04-08T08:05:24.618Z,8.10
2023-04-08T08:07:52.550Z,8.03
2023-04-08T08:10:22.763Z,8.23
2023-04-08T08:12:55.010Z,7.47
2023-04-08T08:15:22.840Z,7.87
2023-04-08T08:17:56.098Z,7.63
2023-04-08T08:20:31.435Z,8.03
2023-04-08T08:22:59.342Z,8.00
2023-04-08T08:25:27.614Z,7.60
2023-04-08T08:27:55.516Z,7.03
2023-04-08T08:30:23.476Z,7.63
2023-04-08T08:32:54.057Z,6.97
2023-04-08T08:35:30.483Z,7.43
2023-04-08T08:37:58.558Z,8.53
2023-04-08T08:40:26.636Z,8.17
2023-04-08T08:42:55.487Z,7.80
2023-04-08T08:45:25.283Z,7.60
2023-04-08T08:47:55.109Z,7.37
2023-04-08T08:50:29.600Z,7.57
2023-04-08T08:52:59.575Z,8.07
2023-04-08T08:55:44.845Z,8.07
2023-04-08T08:58:15.244Z,7.97
2023-04-08T09:00:48.801Z,7.87
2023-04-08T09:03:54.284Z,8.07
2023-04-08T09:06:25.408Z,8.13
2023-04-08T09:08:53.206Z,8.43
2023-04-08T09:11:22.916Z,7.90
2023-04-08T09:13:58.202Z,8.03
2023-04-08T09:20:18.287Z,7.60
2023-04-08T09:23:20.582Z,8.23
2023-04-08T09:25:48.466Z,7.90
2023-04-08T09:28:44.987Z,8.07
2023-04-08T09:31:56.493Z,8.93
2023-04-08T09:34:27.358Z,8.00
2023-04-08T09:36:56.932Z,8.00
2023-04-08T09:39:27.023Z,8.23
2023-04-08T09:42:10.118Z,8.00
2023-04-08T09:44:42.474Z,8.37
2023-04-08T09:47:19.531Z,8.60
2023-04-08T09:53:43.838Z,7.70
2023-04-08T09:56:16.175Z,7.53
2023-04-08T09:58:53.664Z,7.43
2023-04-08T10:01:27.704Z,7.60
2023-04-08T10:03:58.845Z,7.37
2023-04-08T10:06:31.340Z,7.33
2023-04-08T10:12:19.583Z,6.80
2023-04-08T10:18:55.639Z,6.53
2023-04-08T10:25:48.729Z,6.80
2023-04-08T10:28:38.849Z,7.30
2023-04-08T10:31:12.658Z,7.53
2023-04-08T10:33:52.390Z,8.90
2023-04-08T10:36:21.175Z,8.67
2023-04-08T10:38:51.449Z,9.20
2023-04-08T10:41:25.491Z,9.13
2023-04-08T10:43:54.691Z,9.43
2023-04-08T10:46:28.951Z,9.03
2023-04-08T10:49:44.334Z,9.70
2023-04-08T10:52:32.755Z,9.37
2023-04-08T10:55:01.030Z,9.60
2023-04-08T10:57:42.130Z,8.97
2023-04-08T11:01:05.817Z,8.93
2023-04-08T11:03:34.798Z,9.10
2023-04-08T11:06:21.798Z,8.57
2023-04-08T11:08:49.720Z,8.47
2023-04-08T11:11:17.601Z,8.50
2023-04-08T11:13:53.491Z,9.30
2023-04-08T11:16:24.359Z,7.70
2023-04-08T11:18:53.013Z,9.43
2023-04-08T11:21:26.227Z,9.50
2023-04-08T11:23:54.428Z,8.57
2023-04-08T11:26:25.780Z,10.90
2023-04-08T11:28:56.552Z,11.57
2023-04-08T11:31:26.597Z,11.90
2023-04-08T11:33:57.331Z,12.43
2023-04-08T11:36:26.080Z,13.63
2023-04-08T11:38:57.634Z,13.40
2023-04-08T11:41:26.641Z,13.43
2023-04-08T11:43:56.377Z,12.87
2023-04-08T11:46:27.464Z,13.73
2023-04-08T11:49:00.419Z,13.03
2023-04-08T11:51:30.763Z,13.37
2023-04-08T11:53:58.850Z,12.43
2023-04-08T11:56:27.148Z,12.00
2023-04-08T11:58:58.796Z,12.43
2023-04-08T12:01:40.411Z,12.03
2023-04-08T12:04:10.349Z,11.80
2023-04-08T12:06:43.799Z,11.77
2023-04-08T12:09:11.667Z,11.70
2023-04-08T12:11:39.619Z,11.67
2023-04-08T12:14:08.387Z,11.63
2023-04-08T12:16:48.798Z,10.87
2023-04-08T12:19:16.903Z,11.83
2023-04-08T12:21:49.257Z,11.70
2023-04-08T12:24:19.482Z,12.00
2023-04-08T12:29:40.804Z,11.63
2023-04-08T12:32:13.415Z,11.63
2023-04-08T12:34:41.381Z,12.23
2023-04-08T12:37:11.230Z,12.90
2023-04-08T12:39:41.926Z,12.23
2023-04-08T12:42:13.553Z,11.93
2023-04-08T12:44:44.443Z,11.67
2023-04-08T12:47:14.136Z,12.53
2023-04-08T12:49:49.465Z,12.97
2023-04-08T12:52:23.038Z,12.70
2023-04-08T12:54:53.912Z,13.70
2023-04-08T12:57:23.069Z,13.47
2023-04-08T12:59:51.168Z,13.33
2023-04-08T13:02:21.369Z,13.73
2023-04-08T13:04:49.832Z,12.83
2023-04-08T13:07:19.417Z,13.10
2023-04-08T13:09:49.483Z,13.20
2023-04-08T13:12:18.574Z,13.90
2023-04-08T13:14:50.242Z,13.07
2023-04-08T13:17:21.316Z,13.33
2023-04-08T13:19:52.469Z,13.07
2023-04-08T13:22:25.759Z,13.47
2023-04-08T13:27:57.704Z,12.57
2023-04-08T13:30:27.807Z,12.63
2023-04-08T13:32:56.232Z,11.97
2023-04-08T13:35:29.643Z,11.93
2023-04-08T13:37:59.887Z,12.77
2023-04-08T13:40:28.043Z,13.07
2023-04-08T13:42:58.247Z,12.33
2023-04-08T13:45:27.319Z,12.47
2023-04-08T13:47:55.216Z,11.23
2023-04-08T13:50:25.330Z,11.70
2023-04-08T13:52:54.927Z,10.83
2023-04-08T13:55:23.852Z,11.47
2023-04-08T13:57:59.390Z,11.70
2023-04-08T14:00:33.925Z,12.17
2023-04-08T14:05:31.101Z,12.40
2023-04-08T14:08:00.354Z,12.10
2023-04-08T14:10:31.500Z,12.23
2023-04-08T14:12:59.736Z,12.10
2023-04-08T14:15:27.736Z,12.20
2023-04-08T14:17:55.674Z,11.07
2023-04-08T14:20:23.748Z,10.87
2023-04-08T14:22:57.569Z,10.73
2023-04-08T14:25:28.964Z,10.67
2023-04-08T14:28:04.708Z,10.53
2023-04-08T14:31:17.272Z,10.27
2023-04-08T14:33:49.916Z,9.50
2023-04-08T14:36:45.487Z,10.03
2023-04-08T14:39:14.734Z,9.43
2023-04-08T14:41:46.653Z,9.17
2023-04-08T14:44:16.388Z,8.87
2023-04-08T14:46:47.243Z,9.43
2023-04-08T14:49:15.229Z,8.93
2023-04-08T14:51:57.764Z,9.43
2023-04-08T14:54:25.722Z,8.80
2023-04-08T14:57:05.805Z,8.50
2023-04-08T14:59:38.817Z,9.47
2023-04-08T15:02:06.865Z,8.87
2023-04-08T15:04:36.425Z,8.90
2023-04-08T15:07:07.717Z,10.00
2023-04-08T15:09:36.381Z,9.87
2023-04-08T15:12:13.207Z,10.30
2023-04-08T15:14:51.835Z,9.57
2023-04-08T15:17:23.667Z,9.30
2023-04-08T15:19:51.985Z,9.10
2023-04-08T15:22:19.975Z,8.57
2023-04-08T15:24:48.049Z,8.73
2023-04-08T15:27:24.207Z,9.07
2023-04-08T15:29:54.195Z,10.50
2023-04-08T15:32:26.609Z,9.60
2023-04-08T15:34:54.525Z,10.50
2023-04-08T15:37:25.307Z,9.50
2023-04-08T15:39:56.671Z,9.80
2023-04-08T15:42:29.707Z,9.57
2023-04-08T15:45:02.272Z,8.97
2023-04-08T15:47:34.559Z,9.77
2023-04-08T15:50:02.492Z,10.00
2023-04-08T15:52:30.657Z,9.93
2023-04-08T15:55:00.178Z,10.07
2023-04-08T15:57:36.117Z,10.03
2023-04-08T16:00:09.554Z,10.00
2023-04-08T16:02:37.730Z,11.00
2023-04-08T16:05:06.299Z,10.37
2023-04-08T16:07:34.932Z,10.30
2023-04-08T16:10:05.127Z,10.60
2023-04-08T16:12:34.608Z,10.43
2023-04-08T16:15:02.764Z,10.90
2023-04-08T16:17:30.626Z,11.90
2023-04-08T16:19:59.115Z,11.13
2023-04-08T16:22:28.104Z,11.17
2023-04-08T16:24:55.965Z,12.33
2023-04-08T16:27:23.848Z,11.77
2023-04-08T16:29:53.084Z,11.83
2023-04-08T16:32:21.132Z,11.93
2023-04-08T16:34:51.401Z,11.43
2023-04-08T16:37:19.294Z,11.73
2023-04-08T16:43:09.958Z,11.13
2023-04-08T16:48:37.452Z,11.67
2023-04-08T16:51:21.001Z,10.90
2023-04-08T16:53:51.674Z,11.23
2023-04-08T16:56:21.626Z,10.80
2023-04-08T16:58:49.984Z,9.87
2023-04-08T17:01:23.623Z,10.67
2023-04-08T17:03:55.980Z,10.10
2023-04-08T17:06:37.522Z,9.97
2023-04-08T17:09:09.852Z,10.20
2023-04-08T17:11:37.693Z,10.00
2023-04-08T17:14:05.584Z,9.43
2023-04-08T17:16:38.317Z,9.70
2023-04-08T17:19:06.432Z,10.03
2023-04-08T17:21:34.403Z,10.07
2023-04-08T17:24:05.618Z,9.27
2023-04-08T17:26:33.461Z,9.83
2023-04-08T17:29:02.192Z,9.83
2023-04-08T17:31:30.156Z,9.53
2023-04-08T17:33:59.419Z,9.40
2023-04-08T17:36:30.699Z,9.30
2023-04-08T17:38:58.929Z,8.23
2023-04-08T17:44:31.394Z,9.20
2023-04-08T17:49:50.375Z,9.57
2023-04-08T17:52:18.199Z,8.73
2023-04-08T17:54:46.331Z,9.13
2023-04-08T17:57:14.165Z,9.13
2023-04-08T17:59:47.268Z,9.37
2023-04-08T18:02:22.653Z,9.43
2023-04-08T18:04:52.333Z,9.30
2023-04-08T18:07:24.277Z,9.90
2023-04-08T18:10:03.364Z,10.10
2023-04-08T18:12:31.526Z,9.90
2023-04-08T18:15:01.070Z,9.43
2023-04-08T18:17:30.358Z,8.93
2023-04-08T18:20:00.835Z,9.23
2023-04-08T18:22:37.508Z,8.93
2023-04-08T18:25:07.344Z,8.77
2023-04-08T18:27:40.811Z,8.57
2023-04-08T18:30:17.305Z,8.47
2023-04-08T18:32:45.307Z,8.43
2023-04-08T18:35:59.573Z,8.83
2023-04-08T18:38:38.007Z,9.20
2023-04-08T18:41:08.165Z,8.70
2023-04-08T18:43:38.350Z,8.93
2023-04-08T18:46:06.299Z,8.90
2023-04-08T18:48:34.474Z,9.23
2023-04-08T18:51:22.975Z,8.67
2023-04-08T18:54:22.556Z,9.60
2023-04-08T18:56:50.736Z,8.73
2023-04-08T18:59:18.657Z,9.27
2023-04-08T19:01:46.645Z,8.77
2023-04-08T19:04:15.193Z,9.17
2023-04-08T19:06:44.620Z,9.37
2023-04-08T19:09:15.848Z,9.60
2023-04-08T19:11:46.018Z,9.57
2023-04-08T19:14:13.907Z,9.53
2023-04-08T19:16:44.159Z,9.63
2023-04-08T19:19:12.094Z,9.43
2023-04-08T19:21:53.470Z,9.37
2023-04-08T19:24:28.198Z,9.40
2023-04-08T19:26:57.076Z,9.33
2023-04-08T19:29:29.702Z,9.57
2023-04-08T19:31:59.446Z,9.37
2023-04-08T19:37:36.639Z,9.90
2023-04-08T19:40:07.976Z,10.20
2023-04-08T19:42:36.379Z,9.73
2023-04-08T19:45:07.015Z,10.07
2023-04-08T19:47:36.733Z,10.03
2023-04-08T19:50:07.848Z,10.57
2023-04-08T19:52:46.909Z,10.30
2023-04-08T19:55:19.076Z,10.30
2023-04-08T19:57:51.707Z,10.13
2023-04-08T20:00:20.501Z,10.40
2023-04-08T20:02:51.142Z,10.83
2023-04-08T20:05:32.921Z,11.27
2023-04-08T20:08:00.881Z,9.80
2023-04-08T20:10:37.865Z,10.57
2023-04-08T20:13:09.113Z,10.63
2023-04-08T20:15:38.013Z,11.23
2023-04-08T20:18:15.340Z,11.70
2023-04-08T20:20:45.203Z,11.37
2023-04-08T20:23:13.687Z,12.03
2023-04-08T20:25:44.512Z,12.47
2023-04-08T20:28:16.255Z,12.07
2023-04-08T20:31:09.678Z,11.87
2023-04-08T20:36:19.138Z,13.00
2023-04-08T20:38:47.165Z,12.73
2023-04-08T20:41:22.796Z,12.53
2023-04-08T20:43:53.846Z,12.77
2023-04-08T20:46:24.514Z,13.30
2023-04-08T20:48:55.239Z,13.17
2023-04-08T20:51:25.494Z,13.63
2023-04-08T20:53:53.396Z,13.97
2023-04-08T20:56:22.870Z,13.63
2023-04-08T20:58:53.354Z,13.53
2023-04-08T21:01:23.937Z,14.77
2023-04-08T21:03:52.622Z,14.43
2023-04-08T21:06:21.199Z,14.90
2023-04-08T21:08:50.162Z,14.67
2023-04-08T21:11:18.270Z,14.60
2023-04-08T21:13:49.058Z,15.10
2023-04-08T21:16:17.425Z,15.87
2023-04-08T21:18:45.482Z,14.53
2023-04-08T21:21:30.317Z,15.07
2023-04-08T21:24:00.561Z,16.70
2023-04-08T21:26:33.030Z,15.80
2023-04-08T21:29:04.701Z,14.73
2023-04-08T21:31:32.729Z,16.20
2023-04-08T21:34:00.853Z,15.33
2023-04-08T21:36:28.955Z,16.60
2023-04-08T21:39:11.516Z,16.03
2023-04-08T21:41:44.490Z,15.43
2023-04-08T21:44:17.017Z,15.83
2023-04-08T21:46:45.377Z,16.43
2023-04-08T21:49:21.122Z,16.83
2023-04-08T21:51:49.670Z,16.73
2023-04-08T21:54:17.602Z,15.80
2023-04-08T21:56:46.712Z,16.23
2023-04-08T21:59:25.096Z,15.93
2023-04-08T22:01:52.984Z,15.97
2023-04-08T22:04:21.729Z,16.23
2023-04-08T22:06:53.202Z,15.90
2023-04-08T22:10:23.720Z,16.77
2023-04-08T22:18:18.519Z,16.53
2023-04-08T22:20:46.480Z,16.97
2023-04-08T22:23:16.101Z,17.10
2023-04-08T22:25:44.087Z,15.67
2023-04-08T22:28:12.067Z,15.83
2023-04-08T22:30:41.164Z,15.60
2023-04-08T22:33:09.088Z,16.70
2023-04-08T22:35:38.421Z,17.30
2023-04-08T22:38:06.358Z,16.53
2023-04-08T22:40:36.742Z,16.63
2023-04-08T22:43:04.683Z,17.23
2023-04-08T22:45:32.591Z,16.80
2023-04-08T22:48:00.626Z,16.80
2023-04-08T22:50:28.627Z,16.83
2023-04-08T22:52:57.842Z,16.47
2023-04-08T22:55:25.750Z,15.97
2023-04-08T22:57:58.186Z,16.37
2023-04-08T23:00:26.111Z,16.57
2023-04-08T23:02:54.395Z,16.27
2023-04-08T23:05:22.522Z,16.27
2023-04-08T23:07:50.497Z,16.60
2023-04-08T23:10:20.026Z,16.33
2023-04-08T23:12:50.048Z,16.73
2023-04-08T23:15:18.157Z,16.93
2023-04-08T23:17:47.497Z,16.57
2023-04-08T23:20:20.232Z,16.80
2023-04-08T23:22:48.247Z,16.77
2023-04-08T23:25:16.870Z,15.97
2023-04-08T23:27:46.397Z,16.50
2023-04-08T23:30:14.337Z,14.83
2023-04-08T23:32:44.589Z,14.77
2023-04-08T23:35:16.524Z,15.57
2023-04-08T23:37:44.466Z,14.53
2023-04-08T23:40:17.540Z,15.73
2023-04-08T23:42:47.276Z,14.07
2023-04-08T23:45:17.572Z,15.30
2023-04-08T23:48:01.664Z,15.00
2023-04-08T23:53:13.264Z,15.70
2023-04-08T23:55:41.322Z,15.43
2023-04-08T23:58:10.737Z,14.73
